sensor_id;sensor_type;location;lat;lon;timestamp;P1;durP1;ratioP1;P2;durP2;ratioP2
74074;SDS011;62428;51.412;5.432;2023-01-09T00:00:18;1.13;;;0.20;;
74074;SDS011;62428;51.412;5.432;2023-01-09T00:02:45;0.87;;;0.20;;
74074;SDS011;62428;51.412;5.432;2023-01-09T00:05:12;2.08;;;0.25;;
74074;SDS011;62428;51.412;5.432;2023-01-09T00:07:38;0.40;;;0.10;;
74074;SDS011;62428;51.412;5.432;2023-01-09T00:10:04;3.15;;;0.20;;
74074;SDS011;62428;51.412;5.432;2023-01-09T00:12:30;0.63;;;0.20;;
74074;SDS011;62428;51.412;5.432;2023-01-09T00:14:56;0.40;;;0.20;;
74074;SDS011;62428;51.412;5.432;2023-01-09T00:17:21;1.70;;;0.30;;
74074;SDS011;62428;51.412;5.432;2023-01-09T00:19:47;2.00;;;0.10;;
74074;SDS011;62428;51.412;5.432;2023-01-09T00:22:12;1.00;;;0.20;;
74074;SDS011;62428;51.412;5.432;2023-01-09T00:24:38;2.37;;;0.20;;
74074;SDS011;62428;51.412;5.432;2023-01-09T00:27:03;0.47;;;0.20;;
74074;SDS011;62428;51.412;5.432;2023-01-09T00:29:29;1.17;;;0.20;;
74074;SDS011;62428;51.412;5.432;2023-01-09T00:31:55;1.40;;;0.20;;
74074;SDS011;62428;51.412;5.432;2023-01-09T00:34:20;1.60;;;0.20;;
74074;SDS011;62428;51.412;5.432;2023-01-09T00:36:45;0.60;;;0.20;;
74074;SDS011;62428;51.412;5.432;2023-01-09T00:39:11;0.47;;;0.10;;
74074;SDS011;62428;51.412;5.432;2023-01-09T00:41:38;0.82;;;0.20;;
74074;SDS011;62428;51.412;5.432;2023-01-09T00:44:07;1.67;;;0.30;;
74074;SDS011;62428;51.412;5.432;2023-01-09T00:46:47;0.52;;;0.20;;
74074;SDS011;62428;51.412;5.432;2023-01-09T00:49:19;1.02;;;0.20;;
74074;SDS011;62428;51.412;5.432;2023-01-09T00:51:45;3.20;;;0.20;;
74074;SDS011;62428;51.412;5.432;2023-01-09T00:54:12;0.98;;;0.22;;
74074;SDS011;62428;51.412;5.432;2023-01-09T00:56:40;3.95;;;0.32;;
74074;SDS011;62428;51.412;5.432;2023-01-09T00:59:06;1.10;;;0.20;;
74074;SDS011;62428;51.412;5.432;2023-01-09T01:01:32;0.75;;;0.20;;
74074;SDS011;62428;51.412;5.432;2023-01-09T01:03:59;0.83;;;0.20;;
74074;SDS011;62428;51.412;5.432;2023-01-09T01:06:45;0.65;;;0.25;;
74074;SDS011;62428;51.412;5.432;2023-01-09T01:09:29;2.22;;;0.20;;
74074;SDS011;62428;51.412;5.432;2023-01-09T01:11:54;2.50;;;0.30;;
74074;SDS011;62428;51.412;5.432;2023-01-09T01:14:19;0.87;;;0.23;;
74074;SDS011;62428;51.412;5.432;2023-01-09T01:16:45;0.70;;;0.20;;
74074;SDS011;62428;51.412;5.432;2023-01-09T01:19:10;1.75;;;0.52;;
74074;SDS011;62428;51.412;5.432;2023-01-09T01:21:36;4.33;;;0.37;;
74074;SDS011;62428;51.412;5.432;2023-01-09T01:24:02;1.00;;;0.23;;
74074;SDS011;62428;51.412;5.432;2023-01-09T01:26:27;1.30;;;0.40;;
74074;SDS011;62428;51.412;5.432;2023-01-09T01:28:52;0.40;;;0.10;;
74074;SDS011;62428;51.412;5.432;2023-01-09T01:31:18;0.47;;;0.20;;
74074;SDS011;62428;51.412;5.432;2023-01-09T01:33:43;1.52;;;0.30;;
74074;SDS011;62428;51.412;5.432;2023-01-09T01:36:09;1.95;;;0.30;;
74074;SDS011;62428;51.412;5.432;2023-01-09T01:38:34;1.50;;;0.10;;
74074;SDS011;62428;51.412;5.432;2023-01-09T01:41:02;2.03;;;0.30;;
74074;SDS011;62428;51.412;5.432;2023-01-09T01:43:46;1.07;;;0.20;;
74074;SDS011;62428;51.412;5.432;2023-01-09T01:46:14;0.77;;;0.10;;
74074;SDS011;62428;51.412;5.432;2023-01-09T01:48:41;2.08;;;0.25;;
74074;SDS011;62428;51.412;5.432;2023-01-09T01:51:07;2.92;;;0.20;;
74074;SDS011;62428;51.412;5.432;2023-01-09T01:56:09;1.57;;;0.27;;
74074;SDS011;62428;51.412;5.432;2023-01-09T01:58:42;2.00;;;0.22;;
74074;SDS011;62428;51.412;5.432;2023-01-09T02:01:13;1.95;;;0.20;;
74074;SDS011;62428;51.412;5.432;2023-01-09T02:03:39;0.73;;;0.20;;
74074;SDS011;62428;51.412;5.432;2023-01-09T02:06:06;3.23;;;0.30;;
74074;SDS011;62428;51.412;5.432;2023-01-09T02:08:32;1.52;;;0.30;;
74074;SDS011;62428;51.412;5.432;2023-01-09T02:10:58;3.05;;;0.63;;
74074;SDS011;62428;51.412;5.432;2023-01-09T02:13:24;1.75;;;0.28;;
74074;SDS011;62428;51.412;5.432;2023-01-09T02:21:34;1.40;;;0.30;;
74074;SDS011;62428;51.412;5.432;2023-01-09T02:27:02;3.58;;;0.60;;
74074;SDS011;62428;51.412;5.432;2023-01-09T02:37:38;3.57;;;0.50;;
74074;SDS011;62428;51.412;5.432;2023-01-09T02:42:57;5.82;;;0.70;;
74074;SDS011;62428;51.412;5.432;2023-01-09T02:45:24;1.58;;;0.45;;
74074;SDS011;62428;51.412;5.432;2023-01-09T02:47:50;2.93;;;0.70;;
74074;SDS011;62428;51.412;5.432;2023-01-09T02:50:19;5.05;;;0.63;;
74074;SDS011;62428;51.412;5.432;2023-01-09T03:01:35;4.97;;;1.00;;
74074;SDS011;62428;51.412;5.432;2023-01-09T03:09:33;4.07;;;1.40;;
74074;SDS011;62428;51.412;5.432;2023-01-09T03:12:04;4.60;;;1.20;;
74074;SDS011;62428;51.412;5.432;2023-01-09T03:14:36;10.25;;;2.22;;
74074;SDS011;62428;51.412;5.432;2023-01-09T03:17:06;8.30;;;2.00;;
74074;SDS011;62428;51.412;5.432;2023-01-09T03:19:36;8.87;;;1.90;;
74074;SDS011;62428;51.412;5.432;2023-01-09T03:22:02;8.32;;;2.15;;
74074;SDS011;62428;51.412;5.432;2023-01-09T03:24:28;7.13;;;1.87;;
74074;SDS011;62428;51.412;5.432;2023-01-09T03:26:53;9.48;;;2.47;;
74074;SDS011;62428;51.412;5.432;2023-01-09T03:29:19;9.80;;;1.80;;
74074;SDS011;62428;51.412;5.432;2023-01-09T03:31:45;10.60;;;2.15;;
74074;SDS011;62428;51.412;5.432;2023-01-09T03:34:10;5.07;;;1.73;;
74074;SDS011;62428;51.412;5.432;2023-01-09T03:36:35;6.77;;;1.60;;
74074;SDS011;62428;51.412;5.432;2023-01-09T03:39:01;3.63;;;1.50;;
74074;SDS011;62428;51.412;5.432;2023-01-09T03:41:26;6.07;;;1.70;;
74074;SDS011;62428;51.412;5.432;2023-01-09T03:43:52;4.90;;;1.00;;
74074;SDS011;62428;51.412;5.432;2023-01-09T03:46:17;5.35;;;0.73;;
74074;SDS011;62428;51.412;5.432;2023-01-09T03:48:42;4.40;;;0.60;;
74074;SDS011;62428;51.412;5.432;2023-01-09T03:51:08;5.40;;;0.97;;
74074;SDS011;62428;51.412;5.432;2023-01-09T03:53:33;5.40;;;0.60;;
74074;SDS011;62428;51.412;5.432;2023-01-09T03:55:59;7.50;;;0.50;;
74074;SDS011;62428;51.412;5.432;2023-01-09T03:58:24;4.17;;;0.87;;
74074;SDS011;62428;51.412;5.432;2023-01-09T04:00:50;2.80;;;0.80;;
74074;SDS011;62428;51.412;5.432;2023-01-09T04:03:17;4.30;;;0.70;;
74074;SDS011;62428;51.412;5.432;2023-01-09T04:05:44;4.63;;;0.60;;
74074;SDS011;62428;51.412;5.432;2023-01-09T04:08:11;4.00;;;0.50;;
74074;SDS011;62428;51.412;5.432;2023-01-09T04:10:37;3.50;;;0.45;;
74074;SDS011;62428;51.412;5.432;2023-01-09T04:13:02;2.63;;;0.50;;
74074;SDS011;62428;51.412;5.432;2023-01-09T04:15:27;2.77;;;0.40;;
74074;SDS011;62428;51.412;5.432;2023-01-09T04:17:52;6.70;;;0.50;;
74074;SDS011;62428;51.412;5.432;2023-01-09T04:20:18;6.20;;;0.73;;
74074;SDS011;62428;51.412;5.432;2023-01-09T04:22:43;4.77;;;0.70;;
74074;SDS011;62428;51.412;5.432;2023-01-09T04:25:09;4.53;;;0.50;;
74074;SDS011;62428;51.412;5.432;2023-01-09T04:27:34;7.37;;;0.50;;
74074;SDS011;62428;51.412;5.432;2023-01-09T04:30:00;6.27;;;1.07;;
74074;SDS011;62428;51.412;5.432;2023-01-09T04:32:25;4.20;;;0.60;;
74074;SDS011;62428;51.412;5.432;2023-01-09T04:34:51;6.82;;;0.50;;
74074;SDS011;62428;51.412;5.432;2023-01-09T04:37:17;4.10;;;0.57;;
74074;SDS011;62428;51.412;5.432;2023-01-09T04:39:42;8.63;;;0.73;;
74074;SDS011;62428;51.412;5.432;2023-01-09T04:42:08;4.23;;;0.60;;
74074;SDS011;62428;51.412;5.432;2023-01-09T04:44:34;3.83;;;0.55;;
74074;SDS011;62428;51.412;5.432;2023-01-09T04:46:59;3.00;;;0.50;;
74074;SDS011;62428;51.412;5.432;2023-01-09T04:49:25;3.87;;;0.40;;
74074;SDS011;62428;51.412;5.432;2023-01-09T04:51:50;5.55;;;0.60;;
74074;SDS011;62428;51.412;5.432;2023-01-09T04:54:16;5.55;;;0.63;;
74074;SDS011;62428;51.412;5.432;2023-01-09T04:56:42;4.53;;;0.50;;
74074;SDS011;62428;51.412;5.432;2023-01-09T04:59:07;6.30;;;0.55;;
74074;SDS011;62428;51.412;5.432;2023-01-09T05:01:33;6.10;;;0.50;;
74074;SDS011;62428;51.412;5.432;2023-01-09T05:03:59;2.40;;;0.30;;
74074;SDS011;62428;51.412;5.432;2023-01-09T05:06:24;4.27;;;0.40;;
74074;SDS011;62428;51.412;5.432;2023-01-09T05:08:50;2.53;;;0.30;;
74074;SDS011;62428;51.412;5.432;2023-01-09T05:11:15;3.23;;;0.33;;
74074;SDS011;62428;51.412;5.432;2023-01-09T05:13:40;6.30;;;0.40;;
74074;SDS011;62428;51.412;5.432;2023-01-09T05:16:06;2.87;;;0.40;;
74074;SDS011;62428;51.412;5.432;2023-01-09T05:18:31;2.67;;;0.40;;
74074;SDS011;62428;51.412;5.432;2023-01-09T05:20:57;5.50;;;0.40;;
74074;SDS011;62428;51.412;5.432;2023-01-09T05:23:22;4.87;;;0.43;;
74074;SDS011;62428;51.412;5.432;2023-01-09T05:25:48;8.50;;;0.50;;
74074;SDS011;62428;51.412;5.432;2023-01-09T05:28:13;3.30;;;0.30;;
74074;SDS011;62428;51.412;5.432;2023-01-09T05:30:38;2.23;;;0.30;;
74074;SDS011;62428;51.412;5.432;2023-01-09T05:33:05;5.75;;;0.30;;
74074;SDS011;62428;51.412;5.432;2023-01-09T05:35:30;4.27;;;0.30;;
74074;SDS011;62428;51.412;5.432;2023-01-09T05:37:56;8.15;;;0.50;;
74074;SDS011;62428;51.412;5.432;2023-01-09T05:40:21;8.00;;;0.40;;
74074;SDS011;62428;51.412;5.432;2023-01-09T05:42:47;6.50;;;0.53;;
74074;SDS011;62428;51.412;5.432;2023-01-09T05:45:12;5.80;;;0.70;;
74074;SDS011;62428;51.412;5.432;2023-01-09T05:47:37;4.57;;;0.30;;
74074;SDS011;62428;51.412;5.432;2023-01-09T05:50:03;6.03;;;0.40;;
74074;SDS011;62428;51.412;5.432;2023-01-09T05:52:29;6.23;;;0.50;;
74074;SDS011;62428;51.412;5.432;2023-01-09T05:54:54;7.00;;;0.70;;
74074;SDS011;62428;51.412;5.432;2023-01-09T05:57:19;2.87;;;0.33;;
74074;SDS011;62428;51.412;5.432;2023-01-09T05:59:45;1.93;;;0.43;;
74074;SDS011;62428;51.412;5.432;2023-01-09T06:02:10;6.27;;;0.50;;
74074;SDS011;62428;51.412;5.432;2023-01-09T06:04:36;5.37;;;0.60;;
74074;SDS011;62428;51.412;5.432;2023-01-09T06:07:01;4.35;;;0.57;;
74074;SDS011;62428;51.412;5.432;2023-01-09T06:09:27;4.97;;;0.43;;
74074;SDS011;62428;51.412;5.432;2023-01-09T06:11:52;4.77;;;0.80;;
74074;SDS011;62428;51.412;5.432;2023-01-09T06:14:21;5.85;;;0.80;;
74074;SDS011;62428;51.412;5.432;2023-01-09T06:16:47;7.27;;;0.70;;
74074;SDS011;62428;51.412;5.432;2023-01-09T06:19:12;5.88;;;0.43;;
74074;SDS011;62428;51.412;5.432;2023-01-09T06:21:37;7.93;;;1.40;;
74074;SDS011;62428;51.412;5.432;2023-01-09T06:24:03;6.53;;;0.87;;
74074;SDS011;62428;51.412;5.432;2023-01-09T06:26:29;9.50;;;0.50;;
74074;SDS011;62428;51.412;5.432;2023-01-09T06:28:54;7.00;;;0.65;;
74074;SDS011;62428;51.412;5.432;2023-01-09T06:31:23;7.13;;;0.53;;
74074;SDS011;62428;51.412;5.432;2023-01-09T06:33:49;6.60;;;0.50;;
74074;SDS011;62428;51.412;5.432;2023-01-09T06:36:15;7.73;;;1.07;;
74074;SDS011;62428;51.412;5.432;2023-01-09T06:38:40;8.25;;;0.63;;
74074;SDS011;62428;51.412;5.432;2023-01-09T06:41:06;6.07;;;0.47;;
74074;SDS011;62428;51.412;5.432;2023-01-09T06:43:31;10.00;;;0.60;;
74074;SDS011;62428;51.412;5.432;2023-01-09T06:45:57;6.30;;;0.82;;
74074;SDS011;62428;51.412;5.432;2023-01-09T06:48:22;5.93;;;0.50;;
74074;SDS011;62428;51.412;5.432;2023-01-09T06:50:51;3.92;;;0.57;;
74074;SDS011;62428;51.412;5.432;2023-01-09T06:53:17;13.73;;;0.93;;
74074;SDS011;62428;51.412;5.432;2023-01-09T06:55:43;7.63;;;0.70;;
74074;SDS011;62428;51.412;5.432;2023-01-09T06:58:09;4.47;;;0.40;;
74074;SDS011;62428;51.412;5.432;2023-01-09T07:00:34;6.85;;;1.45;;
74074;SDS011;62428;51.412;5.432;2023-01-09T07:03:00;9.57;;;0.95;;
74074;SDS011;62428;51.412;5.432;2023-01-09T07:05:26;6.57;;;0.80;;
74074;SDS011;62428;51.412;5.432;2023-01-09T07:07:51;4.57;;;0.50;;
74074;SDS011;62428;51.412;5.432;2023-01-09T07:10:17;3.37;;;0.47;;
74074;SDS011;62428;51.412;5.432;2023-01-09T07:12:43;6.88;;;0.52;;
74074;SDS011;62428;51.412;5.432;2023-01-09T07:15:08;9.40;;;0.50;;
74074;SDS011;62428;51.412;5.432;2023-01-09T07:17:34;4.10;;;0.60;;
74074;SDS011;62428;51.412;5.432;2023-01-09T07:19:59;7.18;;;0.90;;
74074;SDS011;62428;51.412;5.432;2023-01-09T07:22:25;2.25;;;0.40;;
74074;SDS011;62428;51.412;5.432;2023-01-09T07:24:50;4.33;;;0.77;;
74074;SDS011;62428;51.412;5.432;2023-01-09T07:27:16;5.67;;;0.40;;
74074;SDS011;62428;51.412;5.432;2023-01-09T07:29:41;5.77;;;0.97;;
74074;SDS011;62428;51.412;5.432;2023-01-09T07:32:06;8.43;;;1.00;;
74074;SDS011;62428;51.412;5.432;2023-01-09T07:34:32;7.60;;;0.60;;
74074;SDS011;62428;51.412;5.432;2023-01-09T07:36:57;3.70;;;0.47;;
74074;SDS011;62428;51.412;5.432;2023-01-09T07:39:22;9.27;;;0.43;;
74074;SDS011;62428;51.412;5.432;2023-01-09T07:41:48;3.73;;;0.40;;
74074;SDS011;62428;51.412;5.432;2023-01-09T07:44:13;9.47;;;0.80;;
74074;SDS011;62428;51.412;5.432;2023-01-09T07:46:39;5.70;;;0.52;;
74074;SDS011;62428;51.412;5.432;2023-01-09T07:49:04;2.73;;;0.37;;
74074;SDS011;62428;51.412;5.432;2023-01-09T07:51:30;5.70;;;0.40;;
74074;SDS011;62428;51.412;5.432;2023-01-09T07:53:55;3.77;;;0.60;;
74074;SDS011;62428;51.412;5.432;2023-01-09T07:56:20;4.30;;;0.60;;
74074;SDS011;62428;51.412;5.432;2023-01-09T07:58:46;4.10;;;0.50;;
74074;SDS011;62428;51.412;5.432;2023-01-09T08:01:12;5.73;;;0.53;;
74074;SDS011;62428;51.412;5.432;2023-01-09T08:03:40;2.40;;;0.50;;
74074;SDS011;62428;51.412;5.432;2023-01-09T08:06:05;3.33;;;0.50;;
74074;SDS011;62428;51.412;5.432;2023-01-09T08:08:31;3.77;;;0.50;;
74074;SDS011;62428;51.412;5.432;2023-01-09T08:10:56;7.53;;;0.70;;
74074;SDS011;62428;51.412;5.432;2023-01-09T08:13:22;3.28;;;0.45;;
74074;SDS011;62428;51.412;5.432;2023-01-09T08:15:47;4.60;;;0.38;;
74074;SDS011;62428;51.412;5.432;2023-01-09T08:18:13;6.80;;;0.60;;
74074;SDS011;62428;51.412;5.432;2023-01-09T08:20:38;4.13;;;0.53;;
74074;SDS011;62428;51.412;5.432;2023-01-09T08:23:03;4.77;;;0.80;;
74074;SDS011;62428;51.412;5.432;2023-01-09T08:25:29;4.20;;;0.77;;
74074;SDS011;62428;51.412;5.432;2023-01-09T08:27:54;1.83;;;0.40;;
74074;SDS011;62428;51.412;5.432;2023-01-09T08:30:19;6.27;;;0.73;;
74074;SDS011;62428;51.412;5.432;2023-01-09T08:32:52;7.63;;;0.57;;
74074;SDS011;62428;51.412;5.432;2023-01-09T08:35:18;4.95;;;0.68;;
74074;SDS011;62428;51.412;5.432;2023-01-09T08:37:45;2.40;;;0.50;;
74074;SDS011;62428;51.412;5.432;2023-01-09T08:40:11;3.97;;;0.50;;
74074;SDS011;62428;51.412;5.432;2023-01-09T08:42:38;5.22;;;0.60;;
74074;SDS011;62428;51.412;5.432;2023-01-09T08:45:22;6.13;;;0.50;;
74074;SDS011;62428;51.412;5.432;2023-01-09T08:48:06;4.95;;;0.50;;
74074;SDS011;62428;51.412;5.432;2023-01-09T08:50:32;3.63;;;0.30;;
74074;SDS011;62428;51.412;5.432;2023-01-09T08:52:57;11.77;;;0.90;;
74074;SDS011;62428;51.412;5.432;2023-01-09T08:55:23;3.20;;;0.37;;
74074;SDS011;62428;51.412;5.432;2023-01-09T08:57:49;3.63;;;0.60;;
74074;SDS011;62428;51.412;5.432;2023-01-09T09:00:16;3.20;;;0.35;;
74074;SDS011;62428;51.412;5.432;2023-01-09T09:02:42;4.32;;;0.40;;
74074;SDS011;62428;51.412;5.432;2023-01-09T09:05:07;2.80;;;0.47;;
74074;SDS011;62428;51.412;5.432;2023-01-09T09:07:33;2.17;;;0.30;;
74074;SDS011;62428;51.412;5.432;2023-01-09T09:09:58;7.30;;;0.60;;
74074;SDS011;62428;51.412;5.432;2023-01-09T09:12:24;2.30;;;0.57;;
74074;SDS011;62428;51.412;5.432;2023-01-09T09:14:49;9.67;;;0.40;;
74074;SDS011;62428;51.412;5.432;2023-01-09T09:17:33;6.30;;;0.50;;
74074;SDS011;62428;51.412;5.432;2023-01-09T09:19:58;5.13;;;0.40;;
74074;SDS011;62428;51.412;5.432;2023-01-09T09:22:24;5.27;;;0.30;;
74074;SDS011;62428;51.412;5.432;2023-01-09T09:24:50;5.22;;;0.50;;
74074;SDS011;62428;51.412;5.432;2023-01-09T09:27:15;4.30;;;0.40;;
74074;SDS011;62428;51.412;5.432;2023-01-09T09:29:41;4.80;;;0.50;;
74074;SDS011;62428;51.412;5.432;2023-01-09T09:32:06;9.00;;;0.60;;
74074;SDS011;62428;51.412;5.432;2023-01-09T09:34:31;8.23;;;0.73;;
74074;SDS011;62428;51.412;5.432;2023-01-09T09:36:57;3.97;;;0.55;;
74074;SDS011;62428;51.412;5.432;2023-01-09T09:39:22;4.73;;;0.80;;
74074;SDS011;62428;51.412;5.432;2023-01-09T09:56:13;4.40;;;0.63;;
74074;SDS011;62428;51.412;5.432;2023-01-09T09:58:43;2.65;;;0.50;;
74074;SDS011;62428;51.412;5.432;2023-01-09T10:01:14;6.07;;;0.63;;
74074;SDS011;62428;51.412;5.432;2023-01-09T10:03:49;5.45;;;1.00;;
74074;SDS011;62428;51.412;5.432;2023-01-09T10:06:29;4.95;;;0.70;;
74074;SDS011;62428;51.412;5.432;2023-01-09T10:11:58;6.03;;;0.93;;
74074;SDS011;62428;51.412;5.432;2023-01-09T10:14:28;5.63;;;0.70;;
74074;SDS011;62428;51.412;5.432;2023-01-09T10:17:07;3.67;;;0.70;;
74074;SDS011;62428;51.412;5.432;2023-01-09T10:39:23;5.88;;;0.98;;
74074;SDS011;62428;51.412;5.432;2023-01-09T10:45:28;8.45;;;0.80;;
74074;SDS011;62428;51.412;5.432;2023-01-09T10:47:39;6.43;;;1.20;;
74074;SDS011;62428;51.412;5.432;2023-01-09T10:50:40;5.32;;;1.02;;
74074;SDS011;62428;51.412;5.432;2023-01-09T10:52:59;7.60;;;1.35;;
74074;SDS011;62428;51.412;5.432;2023-01-09T10:55:53;9.13;;;0.90;;
74074;SDS011;62428;51.412;5.432;2023-01-09T10:58:20;10.32;;;1.17;;
74074;SDS011;62428;51.412;5.432;2023-01-09T11:00:47;7.15;;;1.20;;
74074;SDS011;62428;51.412;5.432;2023-01-09T11:03:14;4.57;;;1.00;;
74074;SDS011;62428;51.412;5.432;2023-01-09T11:05:42;5.93;;;1.40;;
74074;SDS011;62428;51.412;5.432;2023-01-09T11:10:51;4.07;;;1.10;;
74074;SDS011;62428;51.412;5.432;2023-01-09T11:13:26;4.65;;;1.10;;
74074;SDS011;62428;51.412;5.432;2023-01-09T11:18:46;5.10;;;1.45;;
74074;SDS011;62428;51.412;5.432;2023-01-09T11:23:51;5.80;;;1.00;;
74074;SDS011;62428;51.412;5.432;2023-01-09T11:26:27;3.58;;;0.88;;
74074;SDS011;62428;51.412;5.432;2023-01-09T11:31:52;6.50;;;1.50;;
74074;SDS011;62428;51.412;5.432;2023-01-09T11:34:20;5.35;;;1.00;;
74074;SDS011;62428;51.412;5.432;2023-01-09T11:36:48;5.95;;;1.20;;
74074;SDS011;62428;51.412;5.432;2023-01-09T11:39:26;3.50;;;1.30;;
74074;SDS011;62428;51.412;5.432;2023-01-09T11:41:58;3.63;;;0.90;;
74074;SDS011;62428;51.412;5.432;2023-01-09T11:44:26;11.47;;;1.27;;
74074;SDS011;62428;51.412;5.432;2023-01-09T11:46:52;5.53;;;1.40;;
74074;SDS011;62428;51.412;5.432;2023-01-09T11:49:19;13.40;;;1.73;;
74074;SDS011;62428;51.412;5.432;2023-01-09T11:52:02;4.15;;;1.30;;
74074;SDS011;62428;51.412;5.432;2023-01-09T11:54:56;7.13;;;1.27;;
74074;SDS011;62428;51.412;5.432;2023-01-09T11:57:27;6.70;;;1.40;;
74074;SDS011;62428;51.412;5.432;2023-01-09T11:59:52;6.77;;;1.30;;
74074;SDS011;62428;51.412;5.432;2023-01-09T12:29:38;10.88;;;1.58;;
74074;SDS011;62428;51.412;5.432;2023-01-09T12:32:35;3.75;;;1.42;;
74074;SDS011;62428;51.412;5.432;2023-01-09T12:36:05;7.85;;;2.22;;
74074;SDS011;62428;51.412;5.432;2023-01-09T12:38:14;8.23;;;1.83;;
74074;SDS011;62428;51.412;5.432;2023-01-09T12:49:45;6.75;;;1.88;;
74074;SDS011;62428;51.412;5.432;2023-01-09T12:54:53;7.43;;;1.90;;
74074;SDS011;62428;51.412;5.432;2023-01-09T12:57:30;5.75;;;1.70;;
74074;SDS011;62428;51.412;5.432;2023-01-09T13:00:03;7.22;;;2.13;;
74074;SDS011;62428;51.412;5.432;2023-01-09T13:07:41;9.73;;;1.87;;
74074;SDS011;62428;51.412;5.432;2023-01-09T13:13:04;6.00;;;1.73;;
74074;SDS011;62428;51.412;5.432;2023-01-09T13:15:36;11.40;;;2.08;;
74074;SDS011;62428;51.412;5.432;2023-01-09T13:18:12;6.22;;;2.00;;
74074;SDS011;62428;51.412;5.432;2023-01-09T13:20:46;11.10;;;2.10;;
74074;SDS011;62428;51.412;5.432;2023-01-09T13:23:26;7.70;;;2.20;;
74074;SDS011;62428;51.412;5.432;2023-01-09T13:26:13;5.00;;;2.03;;
74074;SDS011;62428;51.412;5.432;2023-01-09T13:29:26;8.32;;;2.08;;
74074;SDS011;62428;51.412;5.432;2023-01-09T13:34:30;8.03;;;2.10;;
74074;SDS011;62428;51.412;5.432;2023-01-09T13:36:57;8.70;;;2.47;;
74074;SDS011;62428;51.412;5.432;2023-01-09T13:39:28;7.90;;;2.03;;
74074;SDS011;62428;51.412;5.432;2023-01-09T13:42:02;5.78;;;2.20;;
74074;SDS011;62428;51.412;5.432;2023-01-09T13:44:48;6.15;;;2.25;;
74074;SDS011;62428;51.412;5.432;2023-01-09T13:52:45;6.85;;;2.22;;
74074;SDS011;62428;51.412;5.432;2023-01-09T14:06:03;8.32;;;2.33;;
74074;SDS011;62428;51.412;5.432;2023-01-09T14:08:35;11.00;;;2.30;;
74074;SDS011;62428;51.412;5.432;2023-01-09T14:11:02;5.88;;;1.95;;
74074;SDS011;62428;51.412;5.432;2023-01-09T14:16:16;8.73;;;2.20;;
74074;SDS011;62428;51.412;5.432;2023-01-09T14:18:48;5.22;;;1.83;;
74074;SDS011;62428;51.412;5.432;2023-01-09T14:21:16;9.30;;;2.45;;
74074;SDS011;62428;51.412;5.432;2023-01-09T14:23:47;8.32;;;2.10;;
74074;SDS011;62428;51.412;5.432;2023-01-09T14:26:17;12.82;;;2.53;;
74074;SDS011;62428;51.412;5.432;2023-01-09T14:28:45;8.40;;;2.83;;
74074;SDS011;62428;51.412;5.432;2023-01-09T14:31:25;8.77;;;2.30;;
74074;SDS011;62428;51.412;5.432;2023-01-09T14:34:16;6.20;;;2.88;;
74074;SDS011;62428;51.412;5.432;2023-01-09T14:36:48;6.88;;;2.15;;
74074;SDS011;62428;51.412;5.432;2023-01-09T14:39:15;8.88;;;2.25;;
74074;SDS011;62428;51.412;5.432;2023-01-09T14:41:45;13.10;;;2.70;;
74074;SDS011;62428;51.412;5.432;2023-01-09T14:44:45;7.88;;;2.63;;
74074;SDS011;62428;51.412;5.432;2023-01-09T14:47:14;12.50;;;3.00;;
74074;SDS011;62428;51.412;5.432;2023-01-09T14:49:53;10.15;;;2.85;;
74074;SDS011;62428;51.412;5.432;2023-01-09T14:52:26;8.00;;;2.80;;
74074;SDS011;62428;51.412;5.432;2023-01-09T14:54:56;7.30;;;2.70;;
74074;SDS011;62428;51.412;5.432;2023-01-09T15:00:34;20.20;;;4.03;;
74074;SDS011;62428;51.412;5.432;2023-01-09T15:02:40;12.15;;;3.20;;
74074;SDS011;62428;51.412;5.432;2023-01-09T15:05:09;13.38;;;4.00;;
74074;SDS011;62428;51.412;5.432;2023-01-09T15:07:47;15.00;;;3.83;;
74074;SDS011;62428;51.412;5.432;2023-01-09T15:10:27;11.15;;;3.63;;
74074;SDS011;62428;51.412;5.432;2023-01-09T15:12:55;7.77;;;2.90;;
74074;SDS011;62428;51.412;5.432;2023-01-09T15:15:22;7.72;;;2.70;;
74074;SDS011;62428;51.412;5.432;2023-01-09T15:17:53;9.10;;;3.75;;
74074;SDS011;62428;51.412;5.432;2023-01-09T15:20:23;8.00;;;2.90;;
74074;SDS011;62428;51.412;5.432;2023-01-09T15:22:52;15.10;;;3.58;;
74074;SDS011;62428;51.412;5.432;2023-01-09T15:27:47;8.88;;;3.63;;
74074;SDS011;62428;51.412;5.432;2023-01-09T15:30:21;13.30;;;3.43;;
74074;SDS011;62428;51.412;5.432;2023-01-09T15:32:49;9.30;;;3.35;;
74074;SDS011;62428;51.412;5.432;2023-01-09T15:35:16;11.35;;;2.90;;
74074;SDS011;62428;51.412;5.432;2023-01-09T15:37:43;14.35;;;3.25;;
74074;SDS011;62428;51.412;5.432;2023-01-09T15:40:29;12.50;;;3.03;;
74074;SDS011;62428;51.412;5.432;2023-01-09T15:42:58;13.17;;;3.13;;
74074;SDS011;62428;51.412;5.432;2023-01-09T15:45:26;10.07;;;3.08;;
74074;SDS011;62428;51.412;5.432;2023-01-09T15:48:12;11.43;;;3.13;;
74074;SDS011;62428;51.412;5.432;2023-01-09T15:50:37;13.20;;;3.78;;
74074;SDS011;62428;51.412;5.432;2023-01-09T15:53:03;11.93;;;3.60;;
74074;SDS011;62428;51.412;5.432;2023-01-09T15:55:32;10.37;;;2.90;;
74074;SDS011;62428;51.412;5.432;2023-01-09T15:58:02;11.35;;;3.42;;
74074;SDS011;62428;51.412;5.432;2023-01-09T16:03:00;9.23;;;3.50;;
74074;SDS011;62428;51.412;5.432;2023-01-09T16:05:41;12.43;;;3.72;;
74074;SDS011;62428;51.412;5.432;2023-01-09T16:08:17;10.40;;;3.75;;
74074;SDS011;62428;51.412;5.432;2023-01-09T16:10:47;13.70;;;3.80;;
74074;SDS011;62428;51.412;5.432;2023-01-09T16:13:15;13.50;;;4.32;;
74074;SDS011;62428;51.412;5.432;2023-01-09T16:15:41;10.33;;;3.57;;
74074;SDS011;62428;51.412;5.432;2023-01-09T16:20:37;13.43;;;3.95;;
74074;SDS011;62428;51.412;5.432;2023-01-09T16:23:16;18.27;;;4.20;;
74074;SDS011;62428;51.412;5.432;2023-01-09T16:25:45;13.07;;;3.40;;
74074;SDS011;62428;51.412;5.432;2023-01-09T16:30:54;8.82;;;2.70;;
74074;SDS011;62428;51.412;5.432;2023-01-09T16:33:47;13.98;;;2.40;;
74074;SDS011;62428;51.412;5.432;2023-01-09T16:36:16;11.02;;;2.53;;
74074;SDS011;62428;51.412;5.432;2023-01-09T16:38:42;11.60;;;2.60;;
74074;SDS011;62428;51.412;5.432;2023-01-09T16:41:15;9.30;;;1.97;;
74074;SDS011;62428;51.412;5.432;2023-01-09T16:44:00;11.48;;;1.77;;
74074;SDS011;62428;51.412;5.432;2023-01-09T16:46:30;12.73;;;1.40;;
74074;SDS011;62428;51.412;5.432;2023-01-09T16:48:58;8.57;;;1.43;;
74074;SDS011;62428;51.412;5.432;2023-01-09T16:51:24;8.57;;;1.35;;
74074;SDS011;62428;51.412;5.432;2023-01-09T16:53:52;5.93;;;1.13;;
74074;SDS011;62428;51.412;5.432;2023-01-09T16:56:19;11.07;;;1.40;;
74074;SDS011;62428;51.412;5.432;2023-01-09T16:58:47;13.88;;;1.38;;
74074;SDS011;62428;51.412;5.432;2023-01-09T17:01:13;8.85;;;1.25;;
74074;SDS011;62428;51.412;5.432;2023-01-09T17:03:40;13.63;;;1.63;;
74074;SDS011;62428;51.412;5.432;2023-01-09T17:06:06;11.50;;;1.47;;
74074;SDS011;62428;51.412;5.432;2023-01-09T17:08:34;9.18;;;1.55;;
74074;SDS011;62428;51.412;5.432;2023-01-09T17:11:00;14.27;;;2.25;;
74074;SDS011;62428;51.412;5.432;2023-01-09T17:13:26;10.23;;;1.83;;
74074;SDS011;62428;51.412;5.432;2023-01-09T17:15:52;8.48;;;1.50;;
74074;SDS011;62428;51.412;5.432;2023-01-09T17:18:20;9.90;;;2.03;;
74074;SDS011;62428;51.412;5.432;2023-01-09T17:20:48;9.35;;;1.55;;
74074;SDS011;62428;51.412;5.432;2023-01-09T17:23:18;13.88;;;2.90;;
74074;SDS011;62428;51.412;5.432;2023-01-09T17:25:46;14.85;;;2.65;;
74074;SDS011;62428;51.412;5.432;2023-01-09T17:28:31;8.80;;;2.35;;
74074;SDS011;62428;51.412;5.432;2023-01-09T17:31:00;15.27;;;1.93;;
74074;SDS011;62428;51.412;5.432;2023-01-09T17:33:29;10.32;;;2.10;;
74074;SDS011;62428;51.412;5.432;2023-01-09T17:35:56;14.63;;;2.72;;
74074;SDS011;62428;51.412;5.432;2023-01-09T17:38:21;12.67;;;2.23;;
74074;SDS011;62428;51.412;5.432;2023-01-09T17:40:48;16.40;;;2.10;;
74074;SDS011;62428;51.412;5.432;2023-01-09T17:43:14;13.25;;;2.47;;